sensor_id;sensor_type;location;lat;lon;timestamp;P1;durP1;ratioP1;P2;durP2;ratioP2
5965;SDS011;3009;43.224;27.976;2023-06-19T00:02:04;7.00;;;4.87;;
5965;SDS011;3009;43.224;27.976;2023-06-19T00:04:32;6.83;;;5.33;;
5965;SDS011;3009;43.224;27.976;2023-06-19T00:07:01;6.83;;;5.60;;
5965;SDS011;3009;43.224;27.976;2023-06-19T00:09:30;5.83;;;4.80;;
5965;SDS011;3009;43.224;27.976;2023-06-19T00:11:58;5.27;;;4.83;;
5965;SDS011;3009;43.224;27.976;2023-06-19T00:14:28;8.17;;;5.50;;
5965;SDS011;3009;43.224;27.976;2023-06-19T00:16:58;5.60;;;4.90;;
5965;SDS011;3009;43.224;27.976;2023-06-19T00:19:28;9.27;;;5.37;;
5965;SDS011;3009;43.224;27.976;2023-06-19T00:21:56;6.87;;;6.27;;
5965;SDS011;3009;43.224;27.976;2023-06-19T00:24:26;5.97;;;5.53;;
5965;SDS011;3009;43.224;27.976;2023-06-19T00:26:55;6.43;;;5.77;;
5965;SDS011;3009;43.224;27.976;2023-06-19T00:29:29;10.40;;;5.43;;
5965;SDS011;3009;43.224;27.976;2023-06-19T00:31:59;8.97;;;6.13;;
5965;SDS011;3009;43.224;27.976;2023-06-19T00:34:28;5.10;;;4.80;;
5965;SDS011;3009;43.224;27.976;2023-06-19T00:36:57;6.77;;;6.17;;
5965;SDS011;3009;43.224;27.976;2023-06-19T00:39:26;6.40;;;5.80;;
5965;SDS011;3009;43.224;27.976;2023-06-19T00:41:55;7.37;;;5.70;;
5965;SDS011;3009;43.224;27.976;2023-06-19T00:44:24;5.73;;;5.30;;
5965;SDS011;3009;43.224;27.976;2023-06-19T00:46:54;9.13;;;5.67;;
5965;SDS011;3009;43.224;27.976;2023-06-19T00:49:29;6.47;;;6.00;;
5965;SDS011;3009;43.224;27.976;2023-06-19T00:51:58;10.10;;;6.80;;
5965;SDS011;3009;43.224;27.976;2023-06-19T00:54:27;18.67;;;6.40;;
5965;SDS011;3009;43.224;27.976;2023-06-19T00:56:58;7.10;;;5.70;;
5965;SDS011;3009;43.224;27.976;2023-06-19T00:59:29;7.57;;;5.73;;
5965;SDS011;3009;43.224;27.976;2023-06-19T01:01:58;8.03;;;6.60;;
5965;SDS011;3009;43.224;27.976;2023-06-19T01:04:29;8.20;;;6.40;;
5965;SDS011;3009;43.224;27.976;2023-06-19T01:06:59;5.57;;;5.13;;
5965;SDS011;3009;43.224;27.976;2023-06-19T01:09:37;7.43;;;6.73;;
5965;SDS011;3009;43.224;27.976;2023-06-19T01:12:12;6.43;;;5.90;;
5965;SDS011;3009;43.224;27.976;2023-06-19T01:14:44;6.40;;;5.90;;
5965;SDS011;3009;43.224;27.976;2023-06-19T01:17:18;9.83;;;6.60;;
5965;SDS011;3009;43.224;27.976;2023-06-19T01:19:49;15.23;;;6.37;;
5965;SDS011;3009;43.224;27.976;2023-06-19T01:22:26;6.90;;;6.30;;
5965;SDS011;3009;43.224;27.976;2023-06-19T01:24:55;6.90;;;6.20;;
5965;SDS011;3009;43.224;27.976;2023-06-19T01:27:24;6.93;;;6.23;;
5965;SDS011;3009;43.224;27.976;2023-06-19T01:29:57;8.53;;;6.10;;
5965;SDS011;3009;43.224;27.976;2023-06-19T01:32:29;10.80;;;7.00;;
5965;SDS011;3009;43.224;27.976;2023-06-19T01:35:02;15.67;;;6.80;;
5965;SDS011;3009;43.224;27.976;2023-06-19T01:37:33;8.20;;;6.50;;
5965;SDS011;3009;43.224;27.976;2023-06-19T01:40:02;14.70;;;7.17;;
5965;SDS011;3009;43.224;27.976;2023-06-19T01:42:33;10.63;;;7.30;;
5965;SDS011;3009;43.224;27.976;2023-06-19T01:45:03;9.67;;;6.37;;
5965;SDS011;3009;43.224;27.976;2023-06-19T01:47:33;8.57;;;7.30;;
5965;SDS011;3009;43.224;27.976;2023-06-19T01:50:02;8.27;;;7.17;;
5965;SDS011;3009;43.224;27.976;2023-06-19T01:52:33;7.87;;;7.07;;
5965;SDS011;3009;43.224;27.976;2023-06-19T01:55:01;8.93;;;8.03;;
5965;SDS011;3009;43.224;27.976;2023-06-19T01:57:30;10.40;;;6.30;;
5965;SDS011;3009;43.224;27.976;2023-06-19T01:59:59;7.50;;;6.80;;
5965;SDS011;3009;43.224;27.976;2023-06-19T02:02:27;13.63;;;7.77;;
5965;SDS011;3009;43.224;27.976;2023-06-19T02:04:56;10.63;;;7.40;;
5965;SDS011;3009;43.224;27.976;2023-06-19T02:07:24;8.93;;;8.00;;
5965;SDS011;3009;43.224;27.976;2023-06-19T02:09:54;8.00;;;7.03;;
5965;SDS011;3009;43.224;27.976;2023-06-19T02:12:22;8.50;;;7.70;;
5965;SDS011;3009;43.224;27.976;2023-06-19T02:14:51;8.27;;;7.57;;
5965;SDS011;3009;43.224;27.976;2023-06-19T02:17:19;12.47;;;7.97;;
5965;SDS011;3009;43.224;27.976;2023-06-19T02:19:48;10.53;;;7.80;;
5965;SDS011;3009;43.224;27.976;2023-06-19T02:22:18;9.27;;;7.30;;
5965;SDS011;3009;43.224;27.976;2023-06-19T02:24:47;9.40;;;8.50;;
5965;SDS011;3009;43.224;27.976;2023-06-19T02:27:17;11.53;;;7.80;;
5965;SDS011;3009;43.224;27.976;2023-06-19T02:29:45;9.90;;;7.70;;
5965;SDS011;3009;43.224;27.976;2023-06-19T02:32:13;13.10;;;9.10;;
5965;SDS011;3009;43.224;27.976;2023-06-19T02:34:44;9.47;;;8.53;;
5965;SDS011;3009;43.224;27.976;2023-06-19T02:37:13;9.37;;;8.37;;
5965;SDS011;3009;43.224;27.976;2023-06-19T02:39:41;10.57;;;8.83;;
5965;SDS011;3009;43.224;27.976;2023-06-19T02:42:10;12.80;;;8.33;;
5965;SDS011;3009;43.224;27.976;2023-06-19T02:44:40;9.23;;;8.27;;
5965;SDS011;3009;43.224;27.976;2023-06-19T02:47:08;11.97;;;9.03;;
5965;SDS011;3009;43.224;27.976;2023-06-19T02:49:37;12.93;;;8.30;;
5965;SDS011;3009;43.224;27.976;2023-06-19T02:52:06;10.60;;;8.30;;
5965;SDS011;3009;43.224;27.976;2023-06-19T02:54:35;10.43;;;9.47;;
5965;SDS011;3009;43.224;27.976;2023-06-19T02:57:04;10.50;;;9.37;;
5965;SDS011;3009;43.224;27.976;2023-06-19T02:59:33;19.30;;;9.80;;
5965;SDS011;3009;43.224;27.976;2023-06-19T03:02:03;10.10;;;9.10;;
5965;SDS011;3009;43.224;27.976;2023-06-19T03:04:32;15.70;;;8.70;;
5965;SDS011;3009;43.224;27.976;2023-06-19T03:07:00;10.00;;;8.90;;
5965;SDS011;3009;43.224;27.976;2023-06-19T03:09:29;16.97;;;10.07;;
5965;SDS011;3009;43.224;27.976;2023-06-19T03:11:57;14.20;;;10.27;;
5965;SDS011;3009;43.224;27.976;2023-06-19T03:14:26;10.63;;;9.57;;
5965;SDS011;3009;43.224;27.976;2023-06-19T03:16:54;14.53;;;10.90;;
5965;SDS011;3009;43.224;27.976;2023-06-19T03:19:24;14.90;;;9.27;;
5965;SDS011;3009;43.224;27.976;2023-06-19T03:21:53;12.60;;;10.00;;
5965;SDS011;3009;43.224;27.976;2023-06-19T03:24:21;11.90;;;9.63;;
5965;SDS011;3009;43.224;27.976;2023-06-19T03:26:50;10.07;;;9.07;;
5965;SDS011;3009;43.224;27.976;2023-06-19T03:29:19;11.13;;;10.03;;
5965;SDS011;3009;43.224;27.976;2023-06-19T03:31:48;22.93;;;11.10;;
5965;SDS011;3009;43.224;27.976;2023-06-19T03:34:17;13.30;;;10.77;;
5965;SDS011;3009;43.224;27.976;2023-06-19T03:36:46;18.40;;;10.47;;
5965;SDS011;3009;43.224;27.976;2023-06-19T03:39:15;13.33;;;9.43;;
5965;SDS011;3009;43.224;27.976;2023-06-19T03:41:43;14.87;;;10.43;;
5965;SDS011;3009;43.224;27.976;2023-06-19T03:44:13;13.10;;;10.60;;
5965;SDS011;3009;43.224;27.976;2023-06-19T03:46:41;17.33;;;10.40;;
5965;SDS011;3009;43.224;27.976;2023-06-19T03:49:10;12.80;;;10.87;;
5965;SDS011;3009;43.224;27.976;2023-06-19T03:51:38;12.70;;;9.70;;
5965;SDS011;3009;43.224;27.976;2023-06-19T03:54:08;15.20;;;11.50;;
5965;SDS011;3009;43.224;27.976;2023-06-19T03:56:37;11.90;;;10.30;;
5965;SDS011;3009;43.224;27.976;2023-06-19T03:59:06;12.70;;;11.30;;
5965;SDS011;3009;43.224;27.976;2023-06-19T04:01:34;15.67;;;10.93;;
5965;SDS011;3009;43.224;27.976;2023-06-19T04:04:03;12.83;;;10.47;;
5965;SDS011;3009;43.224;27.976;2023-06-19T04:06:31;22.87;;;11.30;;
5965;SDS011;3009;43.224;27.976;2023-06-19T04:09:00;18.20;;;11.73;;
5965;SDS011;3009;43.224;27.976;2023-06-19T04:11:30;11.53;;;10.30;;
5965;SDS011;3009;43.224;27.976;2023-06-19T04:13:59;25.53;;;10.83;;
5965;SDS011;3009;43.224;27.976;2023-06-19T04:16:27;11.80;;;10.60;;
5965;SDS011;3009;43.224;27.976;2023-06-19T04:18:56;14.73;;;10.77;;
5965;SDS011;3009;43.224;27.976;2023-06-19T04:21:25;12.07;;;10.73;;
5965;SDS011;3009;43.224;27.976;2023-06-19T04:23:55;11.50;;;10.30;;
5965;SDS011;3009;43.224;27.976;2023-06-19T04:26:23;13.03;;;10.23;;
5965;SDS011;3009;43.224;27.976;2023-06-19T04:28:53;14.63;;;10.00;;
5965;SDS011;3009;43.224;27.976;2023-06-19T04:31:23;13.30;;;9.90;;
5965;SDS011;3009;43.224;27.976;2023-06-19T04:33:53;11.40;;;10.20;;
5965;SDS011;3009;43.224;27.976;2023-06-19T04:36:23;10.90;;;9.60;;
5965;SDS011;3009;43.224;27.976;2023-06-19T04:38:52;23.23;;;9.13;;
5965;SDS011;3009;43.224;27.976;2023-06-19T04:41:20;13.27;;;8.70;;
5965;SDS011;3009;43.224;27.976;2023-06-19T04:43:49;9.07;;;8.27;;
5965;SDS011;3009;43.224;27.976;2023-06-19T04:46:19;10.73;;;9.63;;
5965;SDS011;3009;43.224;27.976;2023-06-19T04:48:48;8.77;;;7.90;;
5965;SDS011;3009;43.224;27.976;2023-06-19T04:51:17;15.80;;;9.17;;
5965;SDS011;3009;43.224;27.976;2023-06-19T04:53:47;8.97;;;8.07;;
5965;SDS011;3009;43.224;27.976;2023-06-19T04:56:16;9.63;;;8.73;;
5965;SDS011;3009;43.224;27.976;2023-06-19T04:58:44;8.17;;;7.27;;
5965;SDS011;3009;43.224;27.976;2023-06-19T05:01:14;15.83;;;8.40;;
5965;SDS011;3009;43.224;27.976;2023-06-19T05:03:45;10.50;;;7.50;;
5965;SDS011;3009;43.224;27.976;2023-06-19T05:06:14;8.50;;;7.63;;
5965;SDS011;3009;43.224;27.976;2023-06-19T05:08:42;8.73;;;7.80;;
5965;SDS011;3009;43.224;27.976;2023-06-19T05:11:11;7.10;;;6.40;;
5965;SDS011;3009;43.224;27.976;2023-06-19T05:13:39;8.73;;;6.63;;
5965;SDS011;3009;43.224;27.976;2023-06-19T05:16:08;9.50;;;7.67;;
5965;SDS011;3009;43.224;27.976;2023-06-19T05:18:36;6.87;;;6.27;;
5965;SDS011;3009;43.224;27.976;2023-06-19T05:21:07;7.73;;;6.50;;
5965;SDS011;3009;43.224;27.976;2023-06-19T05:23:35;8.00;;;6.60;;
5965;SDS011;3009;43.224;27.976;2023-06-19T05:26:04;9.00;;;6.47;;
5965;SDS011;3009;43.224;27.976;2023-06-19T05:28:33;6.63;;;6.13;;
5965;SDS011;3009;43.224;27.976;2023-06-19T05:31:02;6.37;;;5.87;;
5965;SDS011;3009;43.224;27.976;2023-06-19T05:33:31;6.70;;;5.53;;
5965;SDS011;3009;43.224;27.976;2023-06-19T05:35:59;6.17;;;5.57;;
5965;SDS011;3009;43.224;27.976;2023-06-19T05:38:29;5.20;;;4.87;;
5965;SDS011;3009;43.224;27.976;2023-06-19T05:40:58;8.80;;;5.67;;
5965;SDS011;3009;43.224;27.976;2023-06-19T05:43:26;8.03;;;5.13;;
5965;SDS011;3009;43.224;27.976;2023-06-19T05:45:54;5.00;;;4.70;;
5965;SDS011;3009;43.224;27.976;2023-06-19T05:48:25;4.70;;;4.30;;
5965;SDS011;3009;43.224;27.976;2023-06-19T05:50:53;5.40;;;4.20;;
5965;SDS011;3009;43.224;27.976;2023-06-19T05:53:22;4.93;;;4.53;;
5965;SDS011;3009;43.224;27.976;2023-06-19T05:55:52;5.53;;;4.80;;
5965;SDS011;3009;43.224;27.976;2023-06-19T05:58:20;5.27;;;4.77;;
5965;SDS011;3009;43.224;27.976;2023-06-19T06:00:50;4.83;;;4.50;;
5965;SDS011;3009;43.224;27.976;2023-06-19T06:03:24;7.63;;;4.80;;
5965;SDS011;3009;43.224;27.976;2023-06-19T06:05:52;7.33;;;5.03;;
5965;SDS011;3009;43.224;27.976;2023-06-19T06:08:21;4.63;;;4.40;;
5965;SDS011;3009;43.224;27.976;2023-06-19T06:10:49;4.90;;;4.60;;
5965;SDS011;3009;43.224;27.976;2023-06-19T06:13:20;6.50;;;4.53;;
5965;SDS011;3009;43.224;27.976;2023-06-19T06:15:49;6.07;;;4.90;;
5965;SDS011;3009;43.224;27.976;2023-06-19T06:18:18;4.80;;;4.30;;
5965;SDS011;3009;43.224;27.976;2023-06-19T06:20:46;4.70;;;4.40;;
5965;SDS011;3009;43.224;27.976;2023-06-19T06:23:15;5.03;;;4.73;;
5965;SDS011;3009;43.224;27.976;2023-06-19T06:25:43;5.10;;;4.60;;
5965;SDS011;3009;43.224;27.976;2023-06-19T06:28:14;5.53;;;4.80;;
5965;SDS011;3009;43.224;27.976;2023-06-19T06:30:42;14.60;;;4.80;;
5965;SDS011;3009;43.224;27.976;2023-06-19T06:33:10;6.40;;;4.70;;
5965;SDS011;3009;43.224;27.976;2023-06-19T06:35:39;9.00;;;5.33;;
5965;SDS011;3009;43.224;27.976;2023-06-19T06:38:09;5.27;;;4.93;;
5965;SDS011;3009;43.224;27.976;2023-06-19T06:40:37;5.23;;;4.73;;
5965;SDS011;3009;43.224;27.976;2023-06-19T06:43:08;7.00;;;4.70;;
5965;SDS011;3009;43.224;27.976;2023-06-19T06:45:38;5.27;;;4.97;;
5965;SDS011;3009;43.224;27.976;2023-06-19T06:48:09;8.37;;;4.90;;
5965;SDS011;3009;43.224;27.976;2023-06-19T06:50:37;6.40;;;4.70;;
5965;SDS011;3009;43.224;27.976;2023-06-19T06:53:07;6.53;;;5.93;;
5965;SDS011;3009;43.224;27.976;2023-06-19T06:55:36;4.80;;;4.60;;
5965;SDS011;3009;43.224;27.976;2023-06-19T06:58:05;11.53;;;5.27;;
5965;SDS011;3009;43.224;27.976;2023-06-19T07:00:33;5.60;;;5.10;;
5965;SDS011;3009;43.224;27.976;2023-06-19T07:03:03;5.67;;;5.27;;
5965;SDS011;3009;43.224;27.976;2023-06-19T07:05:32;9.60;;;5.57;;
5965;SDS011;3009;43.224;27.976;2023-06-19T07:08:00;7.23;;;5.37;;
5965;SDS011;3009;43.224;27.976;2023-06-19T07:10:30;5.13;;;4.77;;
5965;SDS011;3009;43.224;27.976;2023-06-19T07:12:58;5.20;;;4.80;;
5965;SDS011;3009;43.224;27.976;2023-06-19T07:15:27;7.23;;;4.83;;
5965;SDS011;3009;43.224;27.976;2023-06-19T07:17:55;4.87;;;4.57;;
5965;SDS011;3009;43.224;27.976;2023-06-19T07:20:25;5.23;;;4.73;;
5965;SDS011;3009;43.224;27.976;2023-06-19T07:22:54;5.77;;;4.70;;
5965;SDS011;3009;43.224;27.976;2023-06-19T07:25:22;5.37;;;4.40;;
5965;SDS011;3009;43.224;27.976;2023-06-19T07:27:52;7.50;;;5.47;;
5965;SDS011;3009;43.224;27.976;2023-06-19T07:30:20;5.83;;;4.47;;
5965;SDS011;3009;43.224;27.976;2023-06-19T07:32:49;5.00;;;4.60;;
5965;SDS011;3009;43.224;27.976;2023-06-19T07:35:18;4.93;;;4.53;;
5965;SDS011;3009;43.224;27.976;2023-06-19T07:37:49;4.93;;;4.63;;
5965;SDS011;3009;43.224;27.976;2023-06-19T07:40:17;4.73;;;4.40;;
5965;SDS011;3009;43.224;27.976;2023-06-19T07:42:46;5.80;;;5.30;;
5965;SDS011;3009;43.224;27.976;2023-06-19T07:45:14;5.67;;;5.20;;
5965;SDS011;3009;43.224;27.976;2023-06-19T07:47:43;6.00;;;5.60;;
5965;SDS011;3009;43.224;27.976;2023-06-19T07:50:12;8.13;;;5.00;;
5965;SDS011;3009;43.224;27.976;2023-06-19T07:52:40;4.97;;;4.67;;
5965;SDS011;3009;43.224;27.976;2023-06-19T07:55:10;5.40;;;5.10;;
5965;SDS011;3009;43.224;27.976;2023-06-19T07:57:38;7.20;;;5.30;;
5965;SDS011;3009;43.224;27.976;2023-06-19T08:00:07;8.80;;;5.10;;
5965;SDS011;3009;43.224;27.976;2023-06-19T08:02:38;5.80;;;4.97;;
5965;SDS011;3009;43.224;27.976;2023-06-19T08:05:07;6.20;;;5.13;;
5965;SDS011;3009;43.224;27.976;2023-06-19T08:07:36;8.13;;;4.60;;
5965;SDS011;3009;43.224;27.976;2023-06-19T08:10:06;8.30;;;4.80;;
5965;SDS011;3009;43.224;27.976;2023-06-19T08:12:42;5.50;;;5.10;;
5965;SDS011;3009;43.224;27.976;2023-06-19T08:15:11;5.53;;;5.13;;
5965;SDS011;3009;43.224;27.976;2023-06-19T08:17:41;17.00;;;14.87;;
5965;SDS011;3009;43.224;27.976;2023-06-19T08:20:10;8.93;;;8.00;;
5965;SDS011;3009;43.224;27.976;2023-06-19T08:22:38;22.17;;;6.17;;
5965;SDS011;3009;43.224;27.976;2023-06-19T08:25:07;8.10;;;5.60;;
5965;SDS011;3009;43.224;27.976;2023-06-19T08:27:36;6.57;;;6.00;;
5965;SDS011;3009;43.224;27.976;2023-06-19T08:30:07;19.47;;;12.13;;
5965;SDS011;3009;43.224;27.976;2023-06-19T08:32:35;9.43;;;8.30;;
5965;SDS011;3009;43.224;27.976;2023-06-19T08:35:04;6.40;;;5.90;;
5965;SDS011;3009;43.224;27.976;2023-06-19T08:37:33;4.70;;;4.40;;
5965;SDS011;3009;43.224;27.976;2023-06-19T08:40:04;6.13;;;4.93;;
5965;SDS011;3009;43.224;27.976;2023-06-19T08:42:36;10.00;;;5.70;;
5965;SDS011;3009;43.224;27.976;2023-06-19T08:45:07;5.33;;;4.87;;
5965;SDS011;3009;43.224;27.976;2023-06-19T08:47:36;9.00;;;4.90;;
5965;SDS011;3009;43.224;27.976;2023-06-19T08:50:05;7.23;;;5.70;;
5965;SDS011;3009;43.224;27.976;2023-06-19T08:52:34;6.17;;;5.30;;
5965;SDS011;3009;43.224;27.976;2023-06-19T08:55:03;7.27;;;5.40;;
5965;SDS011;3009;43.224;27.976;2023-06-19T08:57:35;5.33;;;4.93;;
5965;SDS011;3009;43.224;27.976;2023-06-19T09:00:07;5.63;;;4.80;;
5965;SDS011;3009;43.224;27.976;2023-06-19T09:02:38;5.03;;;4.73;;
5965;SDS011;3009;43.224;27.976;2023-06-19T09:05:10;7.40;;;4.60;;
5965;SDS011;3009;43.224;27.976;2023-06-19T09:07:40;5.37;;;4.87;;
5965;SDS011;3009;43.224;27.976;2023-06-19T09:10:13;4.87;;;4.57;;
5965;SDS011;3009;43.224;27.976;2023-06-19T09:12:43;4.80;;;4.50;;
5965;SDS011;3009;43.224;27.976;2023-06-19T09:15:13;5.43;;;4.03;;
5965;SDS011;3009;43.224;27.976;2023-06-19T09:17:42;4.63;;;4.40;;
5965;SDS011;3009;43.224;27.976;2023-06-19T09:20:11;5.50;;;5.10;;
5965;SDS011;3009;43.224;27.976;2023-06-19T09:22:39;7.13;;;5.20;;
5965;SDS011;3009;43.224;27.976;2023-06-19T09:25:08;5.13;;;4.73;;
5965;SDS011;3009;43.224;27.976;2023-06-19T09:27:37;6.60;;;4.67;;
5965;SDS011;3009;43.224;27.976;2023-06-19T09:30:06;5.03;;;4.53;;
5965;SDS011;3009;43.224;27.976;2023-06-19T09:32:36;5.60;;;5.07;;
5965;SDS011;3009;43.224;27.976;2023-06-19T09:35:05;4.90;;;4.50;;
5965;SDS011;3009;43.224;27.976;2023-06-19T09:37:33;5.30;;;4.60;;
5965;SDS011;3009;43.224;27.976;2023-06-19T09:40:03;7.07;;;5.30;;
5965;SDS011;3009;43.224;27.976;2023-06-19T09:42:39;5.20;;;4.83;;
5965;SDS011;3009;43.224;27.976;2023-06-19T09:45:10;6.00;;;4.87;;
5965;SDS011;3009;43.224;27.976;2023-06-19T09:47:44;4.80;;;4.40;;
5965;SDS011;3009;43.224;27.976;2023-06-19T09:50:16;6.30;;;5.50;;
5965;SDS011;3009;43.224;27.976;2023-06-19T09:52:44;5.17;;;4.87;;
5965;SDS011;3009;43.224;27.976;2023-06-19T09:55:13;4.87;;;4.47;;
5965;SDS011;3009;43.224;27.976;2023-06-19T09:57:42;5.20;;;4.70;;
5965;SDS011;3009;43.224;27.976;2023-06-19T10:00:12;4.10;;;3.90;;
5965;SDS011;3009;43.224;27.976;2023-06-19T10:02:50;6.60;;;4.60;;
5965;SDS011;3009;43.224;27.976;2023-06-19T10:05:27;4.27;;;4.07;;
5965;SDS011;3009;43.224;27.976;2023-06-19T10:07:56;4.93;;;4.53;;
5965;SDS011;3009;43.224;27.976;2023-06-19T10:10:27;4.83;;;4.53;;
5965;SDS011;3009;43.224;27.976;2023-06-19T10:12:59;5.73;;;4.63;;
5965;SDS011;3009;43.224;27.976;2023-06-19T10:15:40;4.73;;;4.33;;
5965;SDS011;3009;43.224;27.976;2023-06-19T10:18:14;4.40;;;4.10;;
5965;SDS011;3009;43.224;27.976;2023-06-19T10:20:44;7.13;;;4.60;;
5965;SDS011;3009;43.224;27.976;2023-06-19T10:23:15;9.43;;;5.10;;
5965;SDS011;3009;43.224;27.976;2023-06-19T10:25:47;5.17;;;4.70;;
5965;SDS011;3009;43.224;27.976;2023-06-19T10:28:16;5.03;;;4.67;;
5965;SDS011;3009;43.224;27.976;2023-06-19T10:30:51;4.60;;;4.20;;
5965;SDS011;3009;43.224;27.976;2023-06-19T10:33:22;4.73;;;4.30;;
5965;SDS011;3009;43.224;27.976;2023-06-19T10:35:52;4.27;;;4.07;;
5965;SDS011;3009;43.224;27.976;2023-06-19T10:38:21;6.13;;;5.00;;
5965;SDS011;3009;43.224;27.976;2023-06-19T10:40:49;5.13;;;4.83;;
5965;SDS011;3009;43.224;27.976;2023-06-19T10:43:20;5.00;;;4.60;;
5965;SDS011;3009;43.224;27.976;2023-06-19T10:45:51;4.87;;;4.60;;
5965;SDS011;3009;43.224;27.976;2023-06-19T10:48:20;5.43;;;4.20;;
5965;SDS011;3009;43.224;27.976;2023-06-19T10:50:50;4.83;;;4.53;;
5965;SDS011;3009;43.224;27.976;2023-06-19T10:53:25;6.53;;;5.33;;
5965;SDS011;3009;43.224;27.976;2023-06-19T10:55:54;5.50;;;5.20;;
5965;SDS011;3009;43.224;27.976;2023-06-19T10:58:23;4.47;;;4.27;;
5965;SDS011;3009;43.224;27.976;2023-06-19T11:00:52;5.27;;;4.77;;
5965;SDS011;3009;43.224;27.976;2023-06-19T11:03:21;5.03;;;4.70;;
5965;SDS011;3009;43.224;27.976;2023-06-19T11:05:51;5.60;;;5.17;;
5965;SDS011;3009;43.224;27.976;2023-06-19T11:08:20;4.90;;;4.70;;
5965;SDS011;3009;43.224;27.976;2023-06-19T11:10:50;5.43;;;5.03;;
5965;SDS011;3009;43.224;27.976;2023-06-19T11:13:19;6.40;;;5.17;;
5965;SDS011;3009;43.224;27.976;2023-06-19T11:15:48;7.63;;;5.00;;
5965;SDS011;3009;43.224;27.976;2023-06-19T11:18:18;5.17;;;4.73;;
5965;SDS011;3009;43.224;27.976;2023-06-19T11:20:47;5.40;;;5.00;;
5965;SDS011;3009;43.224;27.976;2023-06-19T11:23:24;5.40;;;5.10;;
5965;SDS011;3009;43.224;27.976;2023-06-19T11:25:54;5.47;;;5.07;;
5965;SDS011;3009;43.224;27.976;2023-06-19T11:28:26;5.90;;;4.77;;
5965;SDS011;3009;43.224;27.976;2023-06-19T11:30:57;5.40;;;4.90;;
5965;SDS011;3009;43.224;27.976;2023-06-19T11:33:26;4.80;;;4.40;;
5965;SDS011;3009;43.224;27.976;2023-06-19T11:35:59;4.90;;;4.43;;
5965;SDS011;3009;43.224;27.976;2023-06-19T11:38:31;5.37;;;4.87;;
5965;SDS011;3009;43.224;27.976;2023-06-19T11:41:01;5.07;;;4.67;;
5965;SDS011;3009;43.224;27.976;2023-06-19T11:43:30;5.37;;;4.87;;
5965;SDS011;3009;43.224;27.976;2023-06-19T11:46:02;4.90;;;4.60;;
5965;SDS011;3009;43.224;27.976;2023-06-19T11:48:31;4.30;;;4.10;;
5965;SDS011;3009;43.224;27.976;2023-06-19T11:51:00;5.10;;;4.73;;
5965;SDS011;3009;43.224;27.976;2023-06-19T11:53:28;5.10;;;4.80;;
5965;SDS011;3009;43.224;27.976;2023-06-19T11:55:58;4.63;;;4.33;;
5965;SDS011;3009;43.224;27.976;2023-06-19T11:58:27;5.00;;;4.50;;
5965;SDS011;3009;43.224;27.976;2023-06-19T12:00:55;4.50;;;4.20;;
5965;SDS011;3009;43.224;27.976;2023-06-19T12:03:24;4.80;;;4.50;;
5965;SDS011;3009;43.224;27.976;2023-06-19T12:05:54;5.00;;;4.70;;
5965;SDS011;3009;43.224;27.976;2023-06-19T12:08:22;4.87;;;4.57;;
5965;SDS011;3009;43.224;27.976;2023-06-19T12:10:52;4.83;;;4.53;;
5965;SDS011;3009;43.224;27.976;2023-06-19T12:13:21;4.90;;;4.60;;
5965;SDS011;3009;43.224;27.976;2023-06-19T12:15:49;4.73;;;4.53;;
5965;SDS011;3009;43.224;27.976;2023-06-19T12:18:18;5.10;;;4.70;;
5965;SDS011;3009;43.224;27.976;2023-06-19T12:20:46;5.07;;;4.77;;
5965;SDS011;3009;43.224;27.976;2023-06-19T12:23:14;5.60;;;5.20;;
5965;SDS011;3009;43.224;27.976;2023-06-19T12:25:43;5.10;;;4.80;;
5965;SDS011;3009;43.224;27.976;2023-06-19T12:28:13;5.57;;;5.13;;
5965;SDS011;3009;43.224;27.976;2023-06-19T12:30:45;5.00;;;4.70;;
5965;SDS011;3009;43.224;27.976;2023-06-19T12:33:15;6.27;;;4.50;;
5965;SDS011;3009;43.224;27.976;2023-06-19T12:35:44;5.40;;;5.00;;
5965;SDS011;3009;43.224;27.976;2023-06-19T12:38:13;4.60;;;4.30;;
5965;SDS011;3009;43.224;27.976;2023-06-19T12:40:41;4.70;;;4.27;;
5965;SDS011;3009;43.224;27.976;2023-06-19T12:43:13;4.90;;;4.60;;
5965;SDS011;3009;43.224;27.976;2023-06-19T12:45:42;4.70;;;4.40;;
5965;SDS011;3009;43.224;27.976;2023-06-19T12:48:10;5.93;;;4.60;;
5965;SDS011;3009;43.224;27.976;2023-06-19T12:50:39;5.73;;;5.30;;
5965;SDS011;3009;43.224;27.976;2023-06-19T12:53:07;5.80;;;5.17;;
5965;SDS011;3009;43.224;27.976;2023-06-19T12:55:36;4.97;;;4.67;;
5965;SDS011;3009;43.224;27.976;2023-06-19T12:58:25;4.87;;;4.57;;
5965;SDS011;3009;43.224;27.976;2023-06-19T13:00:54;5.00;;;4.60;;
5965;SDS011;3009;43.224;27.976;2023-06-19T13:03:22;6.00;;;5.60;;
5965;SDS011;3009;43.224;27.976;2023-06-19T13:05:51;5.07;;;4.67;;
5965;SDS011;3009;43.224;27.976;2023-06-19T13:08:20;7.53;;;4.93;;
5965;SDS011;3009;43.224;27.976;2023-06-19T13:10:49;5.60;;;5.10;;
5965;SDS011;3009;43.224;27.976;2023-06-19T13:13:17;5.67;;;5.17;;
5965;SDS011;3009;43.224;27.976;2023-06-19T13:15:49;5.00;;;4.70;;
5965;SDS011;3009;43.224;27.976;2023-06-19T13:18:18;5.23;;;4.80;;
5965;SDS011;3009;43.224;27.976;2023-06-19T13:20:47;4.90;;;4.60;;
5965;SDS011;3009;43.224;27.976;2023-06-19T13:23:16;6.13;;;5.60;;
5965;SDS011;3009;43.224;27.976;2023-06-19T13:25:45;4.53;;;4.33;;
5965;SDS011;3009;43.224;27.976;2023-06-19T13:28:13;4.53;;;4.23;;
5965;SDS011;3009;43.224;27.976;2023-06-19T13:30:41;5.03;;;4.73;;
5965;SDS011;3009;43.224;27.976;2023-06-19T13:33:11;4.97;;;4.57;;
5965;SDS011;3009;43.224;27.976;2023-06-19T13:35:40;5.37;;;4.90;;
5965;SDS011;3009;43.224;27.976;2023-06-19T13:38:08;5.80;;;5.20;;
5965;SDS011;3009;43.224;27.976;2023-06-19T13:40:38;5.90;;;5.40;;
5965;SDS011;3009;43.224;27.976;2023-06-19T13:43:09;5.40;;;5.10;;
5965;SDS011;3009;43.224;27.976;2023-06-19T13:45:38;5.30;;;5.00;;
5965;SDS011;3009;43.224;27.976;2023-06-19T13:48:08;13.20;;;5.40;;
5965;SDS011;3009;43.224;27.976;2023-06-19T13:50:38;6.00;;;5.60;;
5965;SDS011;3009;43.224;27.976;2023-06-19T13:53:06;7.43;;;5.83;;
5965;SDS011;3009;43.224;27.976;2023-06-19T13:55:35;6.13;;;5.73;;
5965;SDS011;3009;43.224;27.976;2023-06-19T13:58:03;6.50;;;5.57;;
5965;SDS011;3009;43.224;27.976;2023-06-19T14:00:33;7.83;;;5.50;;
5965;SDS011;3009;43.224;27.976;2023-06-19T14:03:03;6.50;;;6.10;;
5965;SDS011;3009;43.224;27.976;2023-06-19T14:05:33;5.67;;;5.37;;
5965;SDS011;3009;43.224;27.976;2023-06-19T14:08:06;5.90;;;5.40;;
5965;SDS011;3009;43.224;27.976;2023-06-19T14:10:35;6.00;;;5.50;;
5965;SDS011;3009;43.224;27.976;2023-06-19T14:13:04;5.73;;;5.27;;
5965;SDS011;3009;43.224;27.976;2023-06-19T14:15:33;5.93;;;5.03;;
5965;SDS011;3009;43.224;27.976;2023-06-19T14:18:02;5.97;;;5.43;;
5965;SDS011;3009;43.224;27.976;2023-06-19T14:20:31;5.53;;;5.23;;
5965;SDS011;3009;43.224;27.976;2023-06-19T14:22:59;6.70;;;5.60;;
5965;SDS011;3009;43.224;27.976;2023-06-19T14:25:29;8.70;;;5.60;;
5965;SDS011;3009;43.224;27.976;2023-06-19T14:27:58;6.57;;;5.53;;
5965;SDS011;3009;43.224;27.976;2023-06-19T14:30:27;5.27;;;4.97;;
5965;SDS011;3009;43.224;27.976;2023-06-19T14:32:55;5.40;;;5.10;;
5965;SDS011;3009;43.224;27.976;2023-06-19T14:35:24;5.70;;;5.30;;
5965;SDS011;3009;43.224;27.976;2023-06-19T14:37:52;6.93;;;6.20;;
5965;SDS011;3009;43.224;27.976;2023-06-19T14:40:21;9.97;;;5.60;;
5965;SDS011;3009;43.224;27.976;2023-06-19T14:42:51;9.67;;;7.33;;
5965;SDS011;3009;43.224;27.976;2023-06-19T14:45:20;9.53;;;7.97;;
5965;SDS011;3009;43.224;27.976;2023-06-19T14:47:48;9.07;;;7.93;;
5965;SDS011;3009;43.224;27.976;2023-06-19T14:50:17;10.30;;;7.90;;
5965;SDS011;3009;43.224;27.976;2023-06-19T14:52:45;8.00;;;7.00;;
5965;SDS011;3009;43.224;27.976;2023-06-19T14:55:13;8.27;;;7.40;;
5965;SDS011;3009;43.224;27.976;2023-06-19T14:57:42;10.10;;;8.00;;
5965;SDS011;3009;43.224;27.976;2023-06-19T15:00:13;8.57;;;7.87;;
5965;SDS011;3009;43.224;27.976;2023-06-19T15:02:42;11.90;;;7.57;;
5965;SDS011;3009;43.224;27.976;2023-06-19T15:05:10;12.13;;;7.70;;
5965;SDS011;3009;43.224;27.976;2023-06-19T15:07:39;9.73;;;7.43;;
5965;SDS011;3009;43.224;27.976;2023-06-19T15:10:07;7.27;;;6.60;;
5965;SDS011;3009;43.224;27.976;2023-06-19T15:12:37;7.73;;;7.13;;